createdAt,value
2019-03-28T00:00:58.509Z,99406.69
2019-03-28T00:03:31.587Z,99406.33
2019-03-28T00:06:04.777Z,99409.02
2019-03-28T00:08:37.544Z,99404.71
2019-03-28T00:11:10.562Z,99400.05
2019-03-28T00:13:44.283Z,99398.63
2019-03-28T00:16:17.465Z,99398.86
2019-03-28T00:18:50.231Z,99394.55
2019-03-28T00:21:23.719Z,99399.62
2019-03-28T00:24:15.336Z,99398.51
2019-03-28T00:26:48.489Z,99404.01
2019-03-28T00:29:21.249Z,99400.28
2019-03-28T00:31:53.960Z,99403.27
2019-03-28T00:34:27.032Z,99402.07
2019-03-28T00:36:59.740Z,99403.73
2019-03-28T00:39:32.494Z,99398.03
2019-03-28T00:42:05.525Z,99402.55
2019-03-28T00:44:38.598Z,99401.44
2019-03-28T00:47:11.296Z,99401.92
2019-03-28T00:49:44.376Z,99400.54
2019-03-28T00:52:17.097Z,99396.90
2019-03-28T00:54:50.937Z,99398.09
2019-03-28T00:57:24.426Z,99399.37
2019-03-28T00:59:57.498Z,99396.00
2019-03-28T01:02:30.220Z,99389.91
2019-03-28T01:05:02.966Z,99389.27
2019-03-28T01:07:35.993Z,99393.63
2019-03-28T01:10:10.246Z,99392.61
2019-03-28T01:12:43.753Z,99391.64
2019-03-28T01:15:16.811Z,99391.42
2019-03-28T01:17:49.990Z,99389.59
2019-03-28T01:20:23.058Z,99395.31
2019-03-28T01:22:56.218Z,99395.52
2019-03-28T01:25:29.049Z,99395.51
2019-03-28T01:28:01.759Z,99394.91
2019-03-28T01:30:34.509Z,99392.20
2019-03-28T01:33:07.344Z,99391.98
2019-03-28T01:35:40.087Z,99387.53
2019-03-28T01:38:13.119Z,99390.94
2019-03-28T01:40:45.870Z,99390.00
2019-03-28T01:43:18.891Z,99385.54
2019-03-28T01:45:51.956Z,99381.39
2019-03-28T01:48:24.674Z,99388.38
2019-03-28T01:50:57.995Z,99381.67
2019-03-28T01:53:30.703Z,99388.56
2019-03-28T01:56:03.789Z,99383.81
2019-03-28T01:58:36.502Z,99385.05
2019-03-28T02:01:09.561Z,99390.92
2019-03-28T02:03:42.320Z,99387.16
2019-03-28T02:06:15.394Z,99386.30
2019-03-28T02:08:48.448Z,99385.31
2019-03-28T02:11:21.204Z,99392.05
2019-03-28T02:13:54.301Z,99386.33
2019-03-28T02:16:27.153Z,99389.39
2019-03-28T02:18:59.904Z,99390.55
2019-03-28T02:21:33.018Z,99398.83
2019-03-28T02:24:06.658Z,99394.13
2019-03-28T02:26:40.036Z,99390.31
2019-03-28T02:29:14.675Z,99393.38
2019-03-28T02:31:48.218Z,99391.16
2019-03-28T02:34:20.975Z,99390.07
2019-03-28T02:36:53.748Z,99383.05
2019-03-28T02:39:26.488Z,99383.10
2019-03-28T02:41:59.552Z,99383.25
2019-03-28T02:44:32.774Z,99382.08
2019-03-28T02:47:05.774Z,99390.78
2019-03-28T02:49:38.849Z,99395.53
2019-03-28T02:52:12.020Z,99393.92
2019-03-28T02:54:44.789Z,99401.17
2019-03-28T02:57:18.219Z,99389.18
2019-03-28T02:59:50.966Z,99384.05
2019-03-28T03:02:23.711Z,99381.69
2019-03-28T03:04:56.555Z,99383.22
2019-03-28T03:07:29.311Z,99380.16
2019-03-28T03:10:02.051Z,99386.02
2019-03-28T03:12:35.276Z,99385.54
2019-03-28T03:15:09.797Z,99391.53
2019-03-28T03:17:42.564Z,99392.09
2019-03-28T03:20:15.873Z,99392.43
2019-03-28T03:22:48.633Z,99394.72
2019-03-28T03:25:21.704Z,99398.28
2019-03-28T03:27:58.608Z,99400.72
2019-03-28T03:30:31.432Z,99403.58
2019-03-28T03:33:04.335Z,99407.49
2019-03-28T03:35:37.559Z,99398.77
2019-03-28T03:38:10.334Z,99399.88
2019-03-28T03:40:43.557Z,99393.89
2019-03-28T03:43:16.794Z,99406.65
2019-03-28T03:45:49.545Z,99406.27
2019-03-28T03:48:22.309Z,99407.05
2019-03-28T03:50:55.055Z,99408.80
2019-03-28T03:53:27.836Z,99412.31
2019-03-28T03:56:00.572Z,99409.44
2019-03-28T03:58:33.337Z,99410.62
2019-03-28T04:01:06.579Z,99408.85
2019-03-28T04:03:39.631Z,99410.18
2019-03-28T04:06:12.400Z,99421.36
2019-03-28T04:08:45.187Z,99419.48
2019-03-28T04:11:18.259Z,99419.23
2019-03-28T04:13:51.964Z,99417.07
2019-03-28T04:16:24.722Z,99421.63
2019-03-28T04:18:57.500Z,99414.19
2019-03-28T04:21:30.612Z,99408.22
2019-03-28T04:24:03.368Z,99401.23
2019-03-28T04:26:36.596Z,99403.86
2019-03-28T04:29:09.355Z,99404.70
2019-03-28T04:31:42.529Z,99403.09
2019-03-28T04:34:15.301Z,99405.60
2019-03-28T04:36:48.668Z,99404.12
2019-03-28T04:39:21.737Z,99410.19
2019-03-28T04:41:54.497Z,99403.24
2019-03-28T04:44:28.143Z,99411.28
2019-03-28T04:47:00.893Z,99409.92
2019-03-28T04:49:33.664Z,99406.06
2019-03-28T04:52:06.512Z,99406.70
2019-03-28T04:54:40.000Z,99407.84
2019-03-28T04:57:13.063Z,99421.15
2019-03-28T04:59:45.816Z,99420.27
2019-03-28T05:02:19.036Z,99421.58
2019-03-28T05:04:51.788Z,99418.77
2019-03-28T05:07:24.543Z,99418.25
2019-03-28T05:09:57.300Z,99423.92
2019-03-28T05:12:30.373Z,99425.09
2019-03-28T05:15:04.144Z,99433.64
2019-03-28T05:17:37.325Z,99439.78
2019-03-28T05:20:13.302Z,99432.89
2019-03-28T05:22:45.403Z,99430.73
2019-03-28T05:25:18.169Z,99433.70
2019-03-28T05:27:51.242Z,99443.48
2019-03-28T05:30:24.017Z,99445.83
2019-03-28T05:32:57.073Z,99442.59
2019-03-28T05:35:30.144Z,99445.56
2019-03-28T05:38:03.207Z,99448.66
2019-03-28T05:40:37.380Z,99455.47
2019-03-28T05:43:10.591Z,99469.42
2019-03-28T05:45:44.457Z,99473.14
2019-03-28T05:48:18.110Z,99478.19
2019-03-28T05:50:51.172Z,99478.35
2019-03-28T05:53:24.664Z,99472.58
2019-03-28T05:55:57.437Z,99473.66
2019-03-28T05:58:30.171Z,99478.82
2019-03-28T06:01:03.876Z,99469.23
2019-03-28T06:03:36.954Z,99471.34
2019-03-28T06:06:10.008Z,99465.47
2019-03-28T06:08:42.775Z,99468.80
2019-03-28T06:11:15.532Z,99468.08
2019-03-28T06:13:48.599Z,99463.30
2019-03-28T06:16:21.355Z,99463.95
2019-03-28T06:18:54.123Z,99465.05
2019-03-28T06:21:26.915Z,99470.13
2019-03-28T06:24:00.554Z,99478.23
2019-03-28T06:26:33.633Z,99477.56
2019-03-28T06:29:08.625Z,99478.60
2019-03-28T06:31:54.292Z,99484.33
2019-03-28T06:34:16.439Z,99486.09
2019-03-28T06:36:49.204Z,99488.45
2019-03-28T06:39:21.954Z,99485.37
2019-03-28T06:41:55.025Z,99477.07
2019-03-28T06:44:28.191Z,99478.13
2019-03-28T06:47:01.397Z,99475.16
2019-03-28T06:49:35.242Z,99470.88
2019-03-28T06:52:08.001Z,99474.62
2019-03-28T06:54:41.064Z,99479.30
2019-03-28T06:57:14.555Z,99478.27
2019-03-28T06:59:47.777Z,99475.61
2019-03-28T07:02:21.965Z,99476.89
2019-03-28T07:04:55.200Z,99479.22
2019-03-28T07:07:27.966Z,99473.55
2019-03-28T07:10:02.470Z,99471.92
2019-03-28T07:12:35.231Z,99470.41
2019-03-28T07:15:09.345Z,99467.47
2019-03-28T07:17:42.561Z,99467.08
2019-03-28T07:20:16.240Z,99472.04
2019-03-28T07:22:49.106Z,99473.88
2019-03-28T07:25:21.909Z,99468.17
2019-03-28T07:27:54.669Z,99472.36
2019-03-28T07:30:27.426Z,99477.30
2019-03-28T07:33:01.364Z,99472.00
2019-03-28T07:35:34.445Z,99476.69
2019-03-28T07:38:07.922Z,99473.97
2019-03-28T07:40:42.191Z,99469.69
2019-03-28T07:43:15.999Z,99466.83
2019-03-28T07:45:49.076Z,99470.06
2019-03-28T07:48:22.450Z,99464.86
2019-03-28T07:50:55.672Z,99467.11
2019-03-28T07:53:28.762Z,99456.92
2019-03-28T07:56:01.539Z,99454.68
2019-03-28T07:58:35.410Z,99457.43
2019-03-28T08:01:08.359Z,99454.03
2019-03-28T08:03:41.239Z,99455.61
2019-03-28T08:06:14.791Z,99454.62
2019-03-28T08:08:48.684Z,99455.86
2019-03-28T08:11:21.543Z,99462.14
2019-03-28T08:13:54.753Z,99463.89
2019-03-28T08:16:28.967Z,99463.52
2019-03-28T08:19:01.999Z,99460.59
2019-03-28T08:21:34.852Z,99468.99
2019-03-28T08:24:08.864Z,99470.11
2019-03-28T08:26:42.146Z,99472.50
2019-03-28T08:29:15.052Z,99476.38
2019-03-28T08:31:50.544Z,99473.21
2019-03-28T08:34:24.344Z,99475.73
2019-03-28T08:36:57.789Z,99467.67
2019-03-28T08:39:31.011Z,99476.42
2019-03-28T08:42:04.397Z,99469.67
2019-03-28T08:44:38.465Z,99469.89
2019-03-28T08:47:11.783Z,99469.77
2019-03-28T08:49:44.698Z,99467.95
2019-03-28T08:52:18.015Z,99471.48
2019-03-28T08:54:51.699Z,99474.38
2019-03-28T08:57:24.613Z,99473.92
2019-03-28T08:59:57.555Z,99471.08
2019-03-28T09:02:31.028Z,99471.80
2019-03-28T09:05:04.244Z,99470.20
2019-03-28T09:07:37.642Z,99471.67
2019-03-28T09:10:13.598Z,99470.20
2019-03-28T09:12:47.604Z,99473.77
2019-03-28T09:15:20.830Z,99469.14
2019-03-28T09:17:53.676Z,99464.25
2019-03-28T09:20:26.718Z,99462.88
2019-03-28T09:22:59.595Z,99458.38
2019-03-28T09:25:32.505Z,99461.34
2019-03-28T09:28:05.344Z,99455.08
2019-03-28T09:30:48.960Z,99450.70
2019-03-28T09:33:16.150Z,99445.92
2019-03-28T09:35:49.909Z,99451.38
2019-03-28T09:38:24.144Z,99450.70
2019-03-28T09:40:57.684Z,99446.92
2019-03-28T09:43:32.236Z,99452.11
2019-03-28T09:46:05.553Z,99453.92
2019-03-28T09:48:38.485Z,99456.75
2019-03-28T09:51:11.960Z,99449.48
2019-03-28T09:53:46.421Z,99449.80
2019-03-28T09:56:20.358Z,99447.53
2019-03-28T09:58:53.321Z,99449.80
2019-03-28T10:01:27.492Z,99452.95
2019-03-28T10:04:00.658Z,99450.39
2019-03-28T10:06:34.874Z,99452.83
2019-03-28T10:09:09.502Z,99446.88
2019-03-28T10:11:42.764Z,99444.30
2019-03-28T10:14:16.017Z,99448.70
2019-03-28T10:16:49.524Z,99451.59
2019-03-28T10:19:22.770Z,99449.93
2019-03-28T10:21:55.782Z,99442.25
2019-03-28T10:24:29.339Z,99446.98
2019-03-28T10:27:02.979Z,99441.11
2019-03-28T10:29:35.892Z,99440.06
2019-03-28T10:32:08.729Z,99440.39
2019-03-28T10:34:42.413Z,99443.27
2019-03-28T10:37:15.327Z,99436.78
2019-03-28T10:39:48.563Z,99436.37
2019-03-28T10:42:21.477Z,99430.11
2019-03-28T10:44:54.403Z,99431.69
2019-03-28T10:47:27.784Z,99425.25
2019-03-28T10:50:04.307Z,99417.96
2019-03-28T10:52:37.335Z,99418.70
2019-03-28T10:55:10.374Z,99417.41
2019-03-28T10:57:43.522Z,99413.71
2019-03-28T11:00:24.283Z,99417.64
2019-03-28T11:02:54.522Z,99411.42
2019-03-28T11:05:27.900Z,99410.80
2019-03-28T11:08:01.301Z,99402.11
2019-03-28T11:10:34.325Z,99407.56
2019-03-28T11:13:09.499Z,99415.22
2019-03-28T11:15:42.353Z,99409.66
2019-03-28T11:18:15.513Z,99416.88
2019-03-28T11:20:49.360Z,99409.60
2019-03-28T11:23:22.594Z,99413.98
2019-03-28T11:25:57.421Z,99416.42
2019-03-28T11:28:30.926Z,99422.79
2019-03-28T11:31:03.862Z,99423.16
2019-03-28T11:33:37.551Z,99418.86
2019-03-28T11:36:10.473Z,99418.41
2019-03-28T11:38:43.391Z,99417.33
2019-03-28T11:41:16.632Z,99408.58
2019-03-28T11:43:50.020Z,99415.81
2019-03-28T11:46:22.932Z,99415.73
2019-03-28T11:48:55.852Z,99414.01
2019-03-28T11:51:29.198Z,99412.52
2019-03-28T11:54:03.205Z,99408.29
2019-03-28T11:56:36.585Z,99403.91
2019-03-28T11:59:09.611Z,99411.11
2019-03-28T12:01:43.322Z,99404.02
2019-03-28T12:04:16.704Z,99403.96
2019-03-28T12:06:50.748Z,99402.38
2019-03-28T12:09:24.327Z,99405.78
2019-03-28T12:11:57.256Z,99402.39
2019-03-28T12:14:30.642Z,99406.84
2019-03-28T12:17:03.896Z,99403.78
2019-03-28T12:19:36.739Z,99401.55
2019-03-28T12:22:09.664Z,99404.83
2019-03-28T12:24:42.923Z,99401.64
2019-03-28T12:27:16.333Z,99393.03
2019-03-28T12:29:50.503Z,99389.94
2019-03-28T12:32:23.896Z,99384.31
2019-03-28T12:34:56.737Z,99380.09
2019-03-28T12:37:30.852Z,99380.87
2019-03-28T12:40:03.695Z,99380.46
2019-03-28T12:42:37.328Z,99380.62
2019-03-28T12:45:12.636Z,99377.20
2019-03-28T12:47:45.556Z,99375.44
2019-03-28T12:50:18.789Z,99371.47
2019-03-28T12:52:51.709Z,99366.84
2019-03-28T12:55:24.951Z,99370.06
2019-03-28T12:57:59.231Z,99368.69
2019-03-28T13:00:41.224Z,99364.48
2019-03-28T13:03:14.875Z,99369.06
2019-03-28T13:05:47.728Z,99371.20
2019-03-28T13:08:20.660Z,99370.34
2019-03-28T13:10:54.935Z,99368.92
2019-03-28T13:13:27.846Z,99367.75
2019-03-28T13:16:01.181Z,99370.50
2019-03-28T13:18:36.076Z,99368.21
2019-03-28T13:21:13.886Z,99371.82
2019-03-28T13:23:44.234Z,99375.13
2019-03-28T13:26:17.665Z,99377.94
2019-03-28T13:28:51.360Z,99364.96
2019-03-28T13:31:24.902Z,99371.95
2019-03-28T13:33:58.208Z,99370.59
2019-03-28T13:36:31.039Z,99369.58
2019-03-28T13:39:03.902Z,99362.61
2019-03-28T13:41:36.834Z,99365.12
2019-03-28T13:44:12.240Z,99362.78
2019-03-28T13:46:45.543Z,99354.98
2019-03-28T13:49:18.459Z,99355.05
2019-03-28T13:51:51.371Z,99354.47
2019-03-28T13:54:26.256Z,99349.12
2019-03-28T13:56:59.482Z,99348.99
2019-03-28T13:59:35.333Z,99352.87
2019-03-28T14:02:08.735Z,99352.84
2019-03-28T14:04:41.991Z,99351.23
2019-03-28T14:07:17.303Z,99352.77
2019-03-28T14:09:50.445Z,99351.03
2019-03-28T14:12:23.602Z,99352.77
2019-03-28T14:14:57.014Z,99352.31
2019-03-28T14:17:30.819Z,99352.55
2019-03-28T14:20:04.706Z,99350.73
2019-03-28T14:22:37.734Z,99355.81
2019-03-28T14:25:11.282Z,99355.88
2019-03-28T14:27:44.201Z,99347.78
2019-03-28T14:30:18.780Z,99343.77
2019-03-28T14:32:53.768Z,99347.14
2019-03-28T14:35:27.937Z,99346.19
2019-03-28T14:38:00.848Z,99346.05
2019-03-28T14:40:33.862Z,99343.41
2019-03-28T14:43:10.494Z,99346.30
2019-03-28T14:45:41.883Z,99352.13
2019-03-28T14:48:16.013Z,99340.49
2019-03-28T14:50:49.431Z,99345.59
2019-03-28T14:53:22.477Z,99350.12
2019-03-28T14:55:57.768Z,99349.54
2019-03-28T14:58:32.505Z,99351.73
2019-03-28T15:01:06.402Z,99355.63
2019-03-28T15:03:39.323Z,99350.62
2019-03-28T15:06:12.791Z,99349.54
2019-03-28T15:08:45.715Z,99349.98
2019-03-28T15:11:19.418Z,99348.84
2019-03-28T15:13:54.656Z,99347.48
2019-03-28T15:16:28.379Z,99338.97
2019-03-28T15:19:01.719Z,99339.41
2019-03-28T15:21:36.491Z,99328.16
2019-03-28T15:24:09.717Z,99328.64
2019-03-28T15:26:42.700Z,99328.53
2019-03-28T15:29:16.508Z,99329.14
2019-03-28T15:31:49.395Z,99330.53
2019-03-28T15:34:22.255Z,99332.33
2019-03-28T15:36:55.959Z,99337.26
2019-03-28T15:39:28.810Z,99338.67
2019-03-28T15:42:02.777Z,99342.53
2019-03-28T15:44:39.135Z,99337.20
2019-03-28T15:47:10.956Z,99341.59
2019-03-28T15:49:45.898Z,99338.81
2019-03-28T15:52:19.073Z,99339.50
2019-03-28T15:54:51.998Z,99336.98
2019-03-28T15:57:25.169Z,99340.36
2019-03-28T15:59:58.097Z,99343.51
2019-03-28T16:02:31.024Z,99339.38
2019-03-28T16:05:04.390Z,99345.59
2019-03-28T16:07:37.618Z,99347.20
2019-03-28T16:10:14.738Z,99342.69
2019-03-28T16:12:47.911Z,99340.67
2019-03-28T16:15:22.436Z,99338.42
2019-03-28T16:17:57.661Z,99339.77
2019-03-28T16:20:30.101Z,99334.53
2019-03-28T16:23:03.886Z,99334.48
2019-03-28T16:25:37.335Z,99336.56
2019-03-28T16:28:10.570Z,99337.76
2019-03-28T16:30:44.023Z,99343.06
2019-03-28T16:33:17.427Z,99349.89
2019-03-28T16:35:50.648Z,99351.00
2019-03-28T16:38:23.887Z,99353.45
2019-03-28T16:40:57.861Z,99350.08
2019-03-28T16:43:31.207Z,99346.25
2019-03-28T16:46:07.619Z,99351.89
2019-03-28T16:48:39.786Z,99351.57
2019-03-28T16:51:13.571Z,99352.95
2019-03-28T16:53:47.686Z,99354.59
2019-03-28T16:56:21.150Z,99354.74
2019-03-28T16:58:55.583Z,99349.53
2019-03-28T17:01:28.982Z,99352.19
2019-03-28T17:04:02.613Z,99353.73
2019-03-28T17:06:36.135Z,99350.67
2019-03-28T17:09:10.183Z,99356.92
2019-03-28T17:11:43.335Z,99350.53
2019-03-28T17:14:16.201Z,99359.09
2019-03-28T17:16:50.231Z,99361.97
2019-03-28T17:19:23.207Z,99359.66
2019-03-28T17:21:56.395Z,99359.75
2019-03-28T17:24:30.078Z,99361.97
2019-03-28T17:27:03.358Z,99365.53
2019-03-28T17:29:36.263Z,99364.27
2019-03-28T17:32:10.919Z,99361.37
2019-03-28T17:34:45.916Z,99371.08
2019-03-28T17:37:20.446Z,99375.39
2019-03-28T17:39:53.683Z,99375.92
2019-03-28T17:42:26.912Z,99378.72
2019-03-28T17:45:00.294Z,99378.02
2019-03-28T17:47:33.818Z,99373.61
2019-03-28T17:50:07.988Z,99374.23
2019-03-28T17:52:42.804Z,99373.97
2019-03-28T17:55:19.606Z,99378.09
2019-03-28T17:57:51.644Z,99383.26
2019-03-28T18:00:27.823Z,99378.17
2019-03-28T18:03:09.162Z,99386.96
2019-03-28T18:05:35.755Z,99392.59
2019-03-28T18:08:15.218Z,99385.77
2019-03-28T18:10:48.630Z,99392.16
2019-03-28T18:13:22.369Z,99387.49
2019-03-28T18:15:55.775Z,99396.59
2019-03-28T18:18:28.631Z,99399.91
2019-03-28T18:21:01.985Z,99400.22
2019-03-28T18:23:35.806Z,99406.53
2019-03-28T18:26:10.387Z,99409.36
2019-03-28T18:28:43.863Z,99407.72
2019-03-28T18:31:18.767Z,99409.83
2019-03-28T18:33:51.918Z,99419.13
2019-03-28T18:36:26.762Z,99421.98
2019-03-28T18:38:59.789Z,99430.19
2019-03-28T18:41:33.600Z,99427.39
2019-03-28T18:44:07.190Z,99438.50
2019-03-28T18:46:40.356Z,99443.23
2019-03-28T18:49:13.277Z,99445.43
2019-03-28T18:51:47.454Z,99446.88
2019-03-28T18:54:20.509Z,99446.55
2019-03-28T18:56:54.767Z,99446.39
2019-03-28T18:59:28.507Z,99451.20
2019-03-28T19:02:01.737Z,99448.93
2019-03-28T19:04:36.110Z,99449.56
2019-03-28T19:07:10.330Z,99450.68
2019-03-28T19:09:43.230Z,99452.39
2019-03-28T19:12:16.852Z,99449.42
2019-03-28T19:14:50.586Z,99452.77
2019-03-28T19:17:23.625Z,99454.99
2019-03-28T19:19:59.464Z,99456.64
2019-03-28T19:22:31.739Z,99456.50
2019-03-28T19:25:05.682Z,99458.67
2019-03-28T19:27:38.927Z,99452.95
2019-03-28T19:30:14.248Z,99459.33
2019-03-28T19:32:48.769Z,99458.94
2019-03-28T19:35:32.415Z,99461.91
2019-03-28T19:37:57.367Z,99453.11
2019-03-28T19:40:31.260Z,99451.75
2019-03-28T19:43:04.381Z,99450.00
2019-03-28T19:45:39.357Z,99455.21
2019-03-28T19:48:12.585Z,99449.35
2019-03-28T19:50:45.988Z,99449.03
2019-03-28T19:53:19.016Z,99447.34
2019-03-28T19:55:51.932Z,99447.84
2019-03-28T19:58:25.183Z,99443.28
2019-03-28T20:00:58.577Z,99442.98
2019-03-28T20:03:31.725Z,99442.47
2019-03-28T20:06:05.573Z,99441.20
2019-03-28T20:08:39.529Z,99439.23
2019-03-28T20:11:12.778Z,99441.16
2019-03-28T20:13:45.674Z,99439.23
2019-03-28T20:16:19.267Z,99439.71
2019-03-28T20:18:52.653Z,99437.94
2019-03-28T20:21:26.043Z,99436.20
2019-03-28T20:23:58.899Z,99437.55
2019-03-28T20:26:32.174Z,99443.53
2019-03-28T20:29:05.745Z,99445.20
2019-03-28T20:31:38.502Z,99454.55
2019-03-28T20:34:11.262Z,99449.13
2019-03-28T20:36:44.472Z,99457.69
2019-03-28T20:39:17.382Z,99452.94
2019-03-28T20:41:50.928Z,99456.23
2019-03-28T20:44:24.592Z,99456.53
2019-03-28T20:46:58.872Z,99463.41
2019-03-28T20:49:32.214Z,99460.59
2019-03-28T20:52:05.701Z,99460.95
2019-03-28T20:54:38.480Z,99466.30
2019-03-28T20:57:12.324Z,99471.39
2019-03-28T20:59:46.890Z,99464.90
2019-03-28T21:02:20.127Z,99462.59
2019-03-28T21:04:53.287Z,99468.73
2019-03-28T21:07:26.588Z,99470.34
2019-03-28T21:09:59.660Z,99469.61
2019-03-28T21:12:32.431Z,99466.64
2019-03-28T21:15:06.085Z,99463.08
2019-03-28T21:17:39.228Z,99465.16
2019-03-28T21:20:12.388Z,99467.56
2019-03-28T21:22:46.133Z,99465.31
2019-03-28T21:25:19.940Z,99462.34
2019-03-28T21:27:53.341Z,99451.16
2019-03-28T21:30:27.193Z,99451.38
2019-03-28T21:33:00.630Z,99450.66
2019-03-28T21:35:34.181Z,99449.52
2019-03-28T21:38:07.881Z,99444.73
2019-03-28T21:40:41.244Z,99443.32
2019-03-28T21:43:14.873Z,99443.22
2019-03-28T21:45:48.517Z,99444.80
2019-03-28T21:48:21.586Z,99439.86
2019-03-28T21:50:54.771Z,99439.24
2019-03-28T21:53:28.627Z,99447.44
2019-03-28T21:56:02.091Z,99449.88
2019-03-28T21:58:35.797Z,99451.45
2019-03-28T22:01:09.011Z,99449.07
2019-03-28T22:03:43.127Z,99456.50
2019-03-28T22:06:16.581Z,99457.18
2019-03-28T22:08:49.345Z,99463.70
2019-03-28T22:11:22.165Z,99457.72
2019-03-28T22:13:55.343Z,99461.16
2019-03-28T22:16:29.018Z,99456.87
2019-03-28T22:19:05.030Z,99468.72
2019-03-28T22:21:37.191Z,99470.69
2019-03-28T22:24:12.173Z,99471.73
2019-03-28T22:26:46.125Z,99471.66
2019-03-28T22:29:20.742Z,99464.55
2019-03-28T22:31:54.717Z,99459.59
2019-03-28T22:34:27.480Z,99458.36
2019-03-28T22:37:03.426Z,99459.83
2019-03-28T22:39:35.496Z,99462.05
2019-03-28T22:42:09.919Z,99461.95
2019-03-28T22:44:43.566Z,99464.98
2019-03-28T22:47:16.791Z,99454.20
2019-03-28T22:49:49.548Z,99457.05
2019-03-28T22:52:22.606Z,99454.84
2019-03-28T22:54:55.824Z,99455.83
2019-03-28T22:57:28.895Z,99455.36
2019-03-28T23:00:05.606Z,99450.45
2019-03-28T23:02:38.679Z,99446.69
2019-03-28T23:05:12.173Z,99454.80
2019-03-28T23:07:45.405Z,99452.59
2019-03-28T23:10:20.981Z,99453.39
2019-03-28T23:12:54.611Z,99452.39
2019-03-28T23:15:27.828Z,99453.70
2019-03-28T23:18:01.689Z,99449.46
2019-03-28T23:20:35.787Z,99455.37
2019-03-28T23:23:08.978Z,99452.48
2019-03-28T23:25:41.751Z,99452.87
2019-03-28T23:28:14.783Z,99461.91
2019-03-28T23:30:47.541Z,99464.06
2019-03-28T23:33:20.287Z,99464.20
2019-03-28T23:35:54.029Z,99472.06
2019-03-28T23:38:26.783Z,99475.09
2019-03-28T23:40:59.532Z,99470.78
2019-03-28T23:43:32.747Z,99474.94
2019-03-28T23:46:05.504Z,99476.39
2019-03-28T23:48:38.287Z,99480.93
2019-03-28T23:51:11.505Z,99474.91
2019-03-28T23:53:45.361Z,99478.47
2019-03-28T23:56:18.587Z,99473.73
2019-03-28T23:58:51.657Z,99473.47
